sensor_id;sensor_type;location;lat;lon;timestamp;P1;durP1;ratioP1;P2;durP2;ratioP2
10461;SDS011;5278;42.656;23.374;2023-04-25T00:00:47;4.63;;;3.47;;
10461;SDS011;5278;42.656;23.374;2023-04-25T00:03:14;4.33;;;3.93;;
10461;SDS011;5278;42.656;23.374;2023-04-25T00:05:41;3.47;;;3.17;;
10461;SDS011;5278;42.656;23.374;2023-04-25T00:08:08;3.90;;;3.60;;
10461;SDS011;5278;42.656;23.374;2023-04-25T00:10:34;4.27;;;3.50;;
10461;SDS011;5278;42.656;23.374;2023-04-25T00:13:03;4.63;;;3.40;;
10461;SDS011;5278;42.656;23.374;2023-04-25T00:15:29;4.33;;;3.37;;
10461;SDS011;5278;42.656;23.374;2023-04-25T00:17:57;4.17;;;3.77;;
10461;SDS011;5278;42.656;23.374;2023-04-25T00:20:23;4.50;;;4.07;;
10461;SDS011;5278;42.656;23.374;2023-04-25T00:22:51;4.40;;;4.00;;
10461;SDS011;5278;42.656;23.374;2023-04-25T00:25:18;3.83;;;3.53;;
10461;SDS011;5278;42.656;23.374;2023-04-25T00:27:45;5.13;;;4.20;;
10461;SDS011;5278;42.656;23.374;2023-04-25T00:30:14;6.63;;;4.47;;
10461;SDS011;5278;42.656;23.374;2023-04-25T00:32:41;5.93;;;4.07;;
10461;SDS011;5278;42.656;23.374;2023-04-25T00:35:08;4.10;;;3.70;;
10461;SDS011;5278;42.656;23.374;2023-04-25T00:37:36;4.47;;;4.07;;
10461;SDS011;5278;42.656;23.374;2023-04-25T00:40:04;5.30;;;4.47;;
10461;SDS011;5278;42.656;23.374;2023-04-25T00:42:33;6.37;;;4.40;;
10461;SDS011;5278;42.656;23.374;2023-04-25T00:45:01;5.03;;;4.30;;
10461;SDS011;5278;42.656;23.374;2023-04-25T00:47:29;6.03;;;4.90;;
10461;SDS011;5278;42.656;23.374;2023-04-25T00:49:56;5.40;;;4.00;;
10461;SDS011;5278;42.656;23.374;2023-04-25T00:52:23;5.77;;;4.00;;
10461;SDS011;5278;42.656;23.374;2023-04-25T00:54:50;4.47;;;4.03;;
10461;SDS011;5278;42.656;23.374;2023-04-25T00:57:17;4.27;;;3.87;;
10461;SDS011;5278;42.656;23.374;2023-04-25T00:59:44;5.07;;;4.40;;
10461;SDS011;5278;42.656;23.374;2023-04-25T01:02:12;4.00;;;3.60;;
10461;SDS011;5278;42.656;23.374;2023-04-25T01:04:40;5.57;;;4.00;;
10461;SDS011;5278;42.656;23.374;2023-04-25T01:07:07;5.57;;;3.60;;
10461;SDS011;5278;42.656;23.374;2023-04-25T01:09:35;4.27;;;3.23;;
10461;SDS011;5278;42.656;23.374;2023-04-25T01:12:02;5.67;;;3.77;;
10461;SDS011;5278;42.656;23.374;2023-04-25T01:14:29;4.57;;;4.13;;
10461;SDS011;5278;42.656;23.374;2023-04-25T01:16:56;3.67;;;3.37;;
10461;SDS011;5278;42.656;23.374;2023-04-25T01:19:23;5.80;;;3.73;;
10461;SDS011;5278;42.656;23.374;2023-04-25T01:21:51;4.77;;;3.90;;
10461;SDS011;5278;42.656;23.374;2023-04-25T01:24:18;4.77;;;3.80;;
10461;SDS011;5278;42.656;23.374;2023-04-25T01:26:45;3.63;;;3.33;;
10461;SDS011;5278;42.656;23.374;2023-04-25T01:29:15;3.80;;;3.47;;
10461;SDS011;5278;42.656;23.374;2023-04-25T01:31:42;5.27;;;4.07;;
10461;SDS011;5278;42.656;23.374;2023-04-25T01:34:10;5.23;;;3.83;;
10461;SDS011;5278;42.656;23.374;2023-04-25T01:36:37;5.27;;;3.60;;
10461;SDS011;5278;42.656;23.374;2023-04-25T01:39:05;4.67;;;4.23;;
10461;SDS011;5278;42.656;23.374;2023-04-25T01:41:32;4.30;;;3.70;;
10461;SDS011;5278;42.656;23.374;2023-04-25T01:44:00;4.53;;;3.83;;
10461;SDS011;5278;42.656;23.374;2023-04-25T01:46:28;3.90;;;3.43;;
10461;SDS011;5278;42.656;23.374;2023-04-25T01:48:55;3.70;;;3.40;;
10461;SDS011;5278;42.656;23.374;2023-04-25T01:51:22;4.70;;;3.90;;
10461;SDS011;5278;42.656;23.374;2023-04-25T01:53:49;4.30;;;3.90;;
10461;SDS011;5278;42.656;23.374;2023-04-25T01:56:18;4.40;;;3.77;;
10461;SDS011;5278;42.656;23.374;2023-04-25T01:58:45;5.03;;;4.00;;
10461;SDS011;5278;42.656;23.374;2023-04-25T02:01:12;5.13;;;4.57;;
10461;SDS011;5278;42.656;23.374;2023-04-25T02:03:39;5.20;;;4.40;;
10461;SDS011;5278;42.656;23.374;2023-04-25T02:06:06;4.47;;;3.97;;
10461;SDS011;5278;42.656;23.374;2023-04-25T02:08:33;4.23;;;3.83;;
10461;SDS011;5278;42.656;23.374;2023-04-25T02:11:00;5.33;;;4.40;;
10461;SDS011;5278;42.656;23.374;2023-04-25T02:13:29;5.03;;;4.53;;
10461;SDS011;5278;42.656;23.374;2023-04-25T02:15:56;5.10;;;4.60;;
10461;SDS011;5278;42.656;23.374;2023-04-25T02:18:24;4.80;;;3.87;;
10461;SDS011;5278;42.656;23.374;2023-04-25T02:20:51;5.23;;;4.17;;
10461;SDS011;5278;42.656;23.374;2023-04-25T02:23:18;5.10;;;4.53;;
10461;SDS011;5278;42.656;23.374;2023-04-25T02:25:45;4.97;;;4.47;;
10461;SDS011;5278;42.656;23.374;2023-04-25T02:28:12;6.13;;;4.40;;
10461;SDS011;5278;42.656;23.374;2023-04-25T02:30:40;4.37;;;3.70;;
10461;SDS011;5278;42.656;23.374;2023-04-25T02:33:07;4.40;;;4.00;;
10461;SDS011;5278;42.656;23.374;2023-04-25T02:35:34;5.53;;;4.20;;
10461;SDS011;5278;42.656;23.374;2023-04-25T02:38:01;9.50;;;4.37;;
10461;SDS011;5278;42.656;23.374;2023-04-25T02:40:28;5.17;;;4.30;;
10461;SDS011;5278;42.656;23.374;2023-04-25T02:42:54;7.53;;;4.83;;
10461;SDS011;5278;42.656;23.374;2023-04-25T02:45:21;5.00;;;3.93;;
10461;SDS011;5278;42.656;23.374;2023-04-25T02:47:49;5.10;;;4.60;;
10461;SDS011;5278;42.656;23.374;2023-04-25T02:50:16;5.30;;;4.67;;
10461;SDS011;5278;42.656;23.374;2023-04-25T02:52:44;5.60;;;4.83;;
10461;SDS011;5278;42.656;23.374;2023-04-25T02:55:12;7.40;;;6.03;;
10461;SDS011;5278;42.656;23.374;2023-04-25T02:57:39;5.57;;;4.93;;
10461;SDS011;5278;42.656;23.374;2023-04-25T03:00:06;6.13;;;5.53;;
10461;SDS011;5278;42.656;23.374;2023-04-25T03:02:34;8.80;;;5.13;;
10461;SDS011;5278;42.656;23.374;2023-04-25T03:05:02;5.83;;;5.23;;
10461;SDS011;5278;42.656;23.374;2023-04-25T03:07:29;6.40;;;5.27;;
10461;SDS011;5278;42.656;23.374;2023-04-25T03:09:56;7.53;;;5.27;;
10461;SDS011;5278;42.656;23.374;2023-04-25T03:12:23;5.80;;;4.93;;
10461;SDS011;5278;42.656;23.374;2023-04-25T03:14:50;5.47;;;4.70;;
10461;SDS011;5278;42.656;23.374;2023-04-25T03:17:17;6.57;;;5.10;;
10461;SDS011;5278;42.656;23.374;2023-04-25T03:19:44;6.47;;;5.13;;
10461;SDS011;5278;42.656;23.374;2023-04-25T03:22:12;6.90;;;5.47;;
10461;SDS011;5278;42.656;23.374;2023-04-25T03:24:39;6.17;;;5.57;;
10461;SDS011;5278;42.656;23.374;2023-04-25T03:27:06;6.63;;;5.50;;
10461;SDS011;5278;42.656;23.374;2023-04-25T03:29:32;5.37;;;4.83;;
10461;SDS011;5278;42.656;23.374;2023-04-25T03:31:59;6.33;;;5.10;;
10461;SDS011;5278;42.656;23.374;2023-04-25T03:34:26;6.10;;;5.37;;
10461;SDS011;5278;42.656;23.374;2023-04-25T03:36:53;6.20;;;5.60;;
10461;SDS011;5278;42.656;23.374;2023-04-25T03:39:22;7.73;;;5.17;;
10461;SDS011;5278;42.656;23.374;2023-04-25T03:41:48;6.40;;;5.80;;
10461;SDS011;5278;42.656;23.374;2023-04-25T03:44:15;7.00;;;6.30;;
10461;SDS011;5278;42.656;23.374;2023-04-25T03:46:42;6.20;;;5.60;;
10461;SDS011;5278;42.656;23.374;2023-04-25T03:49:09;7.77;;;5.60;;
10461;SDS011;5278;42.656;23.374;2023-04-25T03:51:36;7.23;;;6.07;;
10461;SDS011;5278;42.656;23.374;2023-04-25T03:54:03;6.73;;;6.03;;
10461;SDS011;5278;42.656;23.374;2023-04-25T03:56:31;8.60;;;5.97;;
10461;SDS011;5278;42.656;23.374;2023-04-25T03:58:58;6.53;;;5.80;;
10461;SDS011;5278;42.656;23.374;2023-04-25T04:01:25;6.27;;;5.47;;
10461;SDS011;5278;42.656;23.374;2023-04-25T04:03:52;6.60;;;5.87;;
10461;SDS011;5278;42.656;23.374;2023-04-25T04:06:19;9.03;;;7.67;;
10461;SDS011;5278;42.656;23.374;2023-04-25T04:08:46;7.37;;;6.47;;
10461;SDS011;5278;42.656;23.374;2023-04-25T04:11:13;10.20;;;6.60;;
10461;SDS011;5278;42.656;23.374;2023-04-25T04:13:41;6.73;;;6.10;;
10461;SDS011;5278;42.656;23.374;2023-04-25T04:16:08;7.77;;;6.30;;
10461;SDS011;5278;42.656;23.374;2023-04-25T04:18:35;6.80;;;6.10;;
10461;SDS011;5278;42.656;23.374;2023-04-25T04:21:02;7.13;;;5.93;;
10461;SDS011;5278;42.656;23.374;2023-04-25T04:23:29;8.10;;;5.23;;
10461;SDS011;5278;42.656;23.374;2023-04-25T04:25:56;7.43;;;5.67;;
10461;SDS011;5278;42.656;23.374;2023-04-25T04:28:23;7.47;;;5.63;;
10461;SDS011;5278;42.656;23.374;2023-04-25T04:30:51;6.90;;;6.20;;
10461;SDS011;5278;42.656;23.374;2023-04-25T04:33:18;8.87;;;6.47;;
10461;SDS011;5278;42.656;23.374;2023-04-25T04:35:45;5.00;;;4.50;;
10461;SDS011;5278;42.656;23.374;2023-04-25T04:38:13;5.73;;;5.23;;
10461;SDS011;5278;42.656;23.374;2023-04-25T04:40:41;5.97;;;5.07;;
10461;SDS011;5278;42.656;23.374;2023-04-25T04:43:08;6.10;;;5.37;;
10461;SDS011;5278;42.656;23.374;2023-04-25T04:45:35;6.37;;;5.43;;
10461;SDS011;5278;42.656;23.374;2023-04-25T04:48:05;5.70;;;4.63;;
10461;SDS011;5278;42.656;23.374;2023-04-25T04:50:32;6.07;;;5.30;;
10461;SDS011;5278;42.656;23.374;2023-04-25T04:52:59;4.90;;;4.43;;
10461;SDS011;5278;42.656;23.374;2023-04-25T04:55:26;5.40;;;4.90;;
10461;SDS011;5278;42.656;23.374;2023-04-25T04:57:52;5.73;;;4.53;;
10461;SDS011;5278;42.656;23.374;2023-04-25T05:00:19;4.67;;;4.27;;
10461;SDS011;5278;42.656;23.374;2023-04-25T05:02:47;5.43;;;4.43;;
10461;SDS011;5278;42.656;23.374;2023-04-25T05:05:15;5.10;;;4.60;;
10461;SDS011;5278;42.656;23.374;2023-04-25T05:07:42;10.30;;;7.70;;
10461;SDS011;5278;42.656;23.374;2023-04-25T05:10:10;6.57;;;5.70;;
10461;SDS011;5278;42.656;23.374;2023-04-25T05:12:37;8.30;;;6.20;;
10461;SDS011;5278;42.656;23.374;2023-04-25T05:15:05;7.27;;;6.40;;
10461;SDS011;5278;42.656;23.374;2023-04-25T05:17:32;7.60;;;6.60;;
10461;SDS011;5278;42.656;23.374;2023-04-25T05:19:59;6.90;;;5.90;;
10461;SDS011;5278;42.656;23.374;2023-04-25T05:22:28;9.47;;;5.83;;
10461;SDS011;5278;42.656;23.374;2023-04-25T05:24:55;7.47;;;6.10;;
10461;SDS011;5278;42.656;23.374;2023-04-25T05:27:21;7.40;;;6.60;;
10461;SDS011;5278;42.656;23.374;2023-04-25T05:29:48;6.93;;;6.27;;
10461;SDS011;5278;42.656;23.374;2023-04-25T05:32:15;12.93;;;9.13;;
10461;SDS011;5278;42.656;23.374;2023-04-25T05:34:42;7.97;;;7.17;;
10461;SDS011;5278;42.656;23.374;2023-04-25T05:37:09;8.07;;;7.27;;
10461;SDS011;5278;42.656;23.374;2023-04-25T05:39:37;11.13;;;8.00;;
10461;SDS011;5278;42.656;23.374;2023-04-25T05:42:04;5.10;;;4.60;;
10461;SDS011;5278;42.656;23.374;2023-04-25T05:44:31;6.50;;;5.33;;
10461;SDS011;5278;42.656;23.374;2023-04-25T05:46:58;7.17;;;5.53;;
10461;SDS011;5278;42.656;23.374;2023-04-25T05:49:25;6.50;;;5.03;;
10461;SDS011;5278;42.656;23.374;2023-04-25T05:51:52;6.13;;;5.37;;
10461;SDS011;5278;42.656;23.374;2023-04-25T05:54:18;5.20;;;4.70;;
10461;SDS011;5278;42.656;23.374;2023-04-25T05:56:47;5.03;;;4.60;;
10461;SDS011;5278;42.656;23.374;2023-04-25T05:59:14;6.20;;;4.73;;
10461;SDS011;5278;42.656;23.374;2023-04-25T06:01:41;9.60;;;7.50;;
10461;SDS011;5278;42.656;23.374;2023-04-25T06:04:08;5.63;;;5.13;;
10461;SDS011;5278;42.656;23.374;2023-04-25T06:06:35;6.17;;;5.33;;
10461;SDS011;5278;42.656;23.374;2023-04-25T06:09:02;5.90;;;5.10;;
10461;SDS011;5278;42.656;23.374;2023-04-25T06:11:29;5.07;;;4.40;;
10461;SDS011;5278;42.656;23.374;2023-04-25T06:13:57;5.90;;;4.57;;
10461;SDS011;5278;42.656;23.374;2023-04-25T06:16:24;5.70;;;4.97;;
10461;SDS011;5278;42.656;23.374;2023-04-25T06:18:51;5.07;;;4.60;;
10461;SDS011;5278;42.656;23.374;2023-04-25T06:21:18;6.00;;;4.90;;
10461;SDS011;5278;42.656;23.374;2023-04-25T06:23:45;5.63;;;4.30;;
10461;SDS011;5278;42.656;23.374;2023-04-25T06:26:12;7.63;;;3.83;;
10461;SDS011;5278;42.656;23.374;2023-04-25T06:28:39;4.93;;;4.23;;
10461;SDS011;5278;42.656;23.374;2023-04-25T06:31:07;4.53;;;4.10;;
10461;SDS011;5278;42.656;23.374;2023-04-25T06:33:34;4.90;;;4.37;;
10461;SDS011;5278;42.656;23.374;2023-04-25T06:36:01;5.20;;;4.50;;
10461;SDS011;5278;42.656;23.374;2023-04-25T06:38:28;11.07;;;7.20;;
10461;SDS011;5278;42.656;23.374;2023-04-25T06:40:55;10.10;;;6.40;;
10461;SDS011;5278;42.656;23.374;2023-04-25T06:43:22;6.60;;;5.70;;
10461;SDS011;5278;42.656;23.374;2023-04-25T06:45:48;9.23;;;7.10;;
10461;SDS011;5278;42.656;23.374;2023-04-25T06:48:17;7.73;;;6.00;;
10461;SDS011;5278;42.656;23.374;2023-04-25T06:50:43;9.60;;;7.23;;
10461;SDS011;5278;42.656;23.374;2023-04-25T06:53:10;14.30;;;10.00;;
10461;SDS011;5278;42.656;23.374;2023-04-25T06:55:37;7.03;;;5.10;;
10461;SDS011;5278;42.656;23.374;2023-04-25T06:58:04;8.33;;;5.83;;
10461;SDS011;5278;42.656;23.374;2023-04-25T07:00:32;5.53;;;4.17;;
10461;SDS011;5278;42.656;23.374;2023-04-25T07:02:59;5.67;;;4.40;;
10461;SDS011;5278;42.656;23.374;2023-04-25T07:05:27;3.97;;;3.57;;
10461;SDS011;5278;42.656;23.374;2023-04-25T07:07:54;4.93;;;4.43;;
10461;SDS011;5278;42.656;23.374;2023-04-25T07:10:21;5.57;;;3.87;;
10461;SDS011;5278;42.656;23.374;2023-04-25T07:12:48;11.40;;;6.40;;
10461;SDS011;5278;42.656;23.374;2023-04-25T07:15:15;6.07;;;3.87;;
10461;SDS011;5278;42.656;23.374;2023-04-25T07:17:42;5.90;;;4.13;;
10461;SDS011;5278;42.656;23.374;2023-04-25T07:20:08;6.03;;;3.53;;
10461;SDS011;5278;42.656;23.374;2023-04-25T07:22:37;3.87;;;3.47;;
10461;SDS011;5278;42.656;23.374;2023-04-25T07:25:05;6.50;;;4.63;;
10461;SDS011;5278;42.656;23.374;2023-04-25T07:27:33;4.30;;;3.90;;
10461;SDS011;5278;42.656;23.374;2023-04-25T07:30:00;5.50;;;3.80;;
10461;SDS011;5278;42.656;23.374;2023-04-25T07:32:27;4.83;;;3.90;;
10461;SDS011;5278;42.656;23.374;2023-04-25T07:34:54;5.13;;;4.63;;
10461;SDS011;5278;42.656;23.374;2023-04-25T07:37:21;5.27;;;4.50;;
10461;SDS011;5278;42.656;23.374;2023-04-25T07:39:49;5.67;;;4.80;;
10461;SDS011;5278;42.656;23.374;2023-04-25T07:42:16;7.73;;;5.57;;
10461;SDS011;5278;42.656;23.374;2023-04-25T07:44:43;5.70;;;4.27;;
10461;SDS011;5278;42.656;23.374;2023-04-25T07:47:10;14.77;;;10.53;;
10461;SDS011;5278;42.656;23.374;2023-04-25T07:49:37;10.30;;;7.40;;
10461;SDS011;5278;42.656;23.374;2023-04-25T07:52:04;14.97;;;8.40;;
10461;SDS011;5278;42.656;23.374;2023-04-25T07:54:32;7.90;;;4.73;;
10461;SDS011;5278;42.656;23.374;2023-04-25T07:57:00;6.07;;;4.77;;
10461;SDS011;5278;42.656;23.374;2023-04-25T07:59:27;7.20;;;5.67;;
10461;SDS011;5278;42.656;23.374;2023-04-25T08:01:54;6.37;;;4.97;;
10461;SDS011;5278;42.656;23.374;2023-04-25T08:04:22;6.03;;;4.87;;
10461;SDS011;5278;42.656;23.374;2023-04-25T08:06:50;8.67;;;4.80;;
10461;SDS011;5278;42.656;23.374;2023-04-25T08:09:17;16.13;;;6.90;;
10461;SDS011;5278;42.656;23.374;2023-04-25T08:11:44;6.83;;;6.13;;
10461;SDS011;5278;42.656;23.374;2023-04-25T08:14:13;9.60;;;5.03;;
10461;SDS011;5278;42.656;23.374;2023-04-25T08:16:40;16.30;;;10.23;;
10461;SDS011;5278;42.656;23.374;2023-04-25T08:19:07;7.23;;;5.23;;
10461;SDS011;5278;42.656;23.374;2023-04-25T08:21:34;7.33;;;5.63;;
10461;SDS011;5278;42.656;23.374;2023-04-25T08:24:00;7.97;;;5.10;;
10461;SDS011;5278;42.656;23.374;2023-04-25T08:26:28;5.47;;;4.90;;
10461;SDS011;5278;42.656;23.374;2023-04-25T08:28:55;4.70;;;4.03;;
10461;SDS011;5278;42.656;23.374;2023-04-25T08:31:23;7.03;;;5.23;;
10461;SDS011;5278;42.656;23.374;2023-04-25T08:33:50;5.00;;;3.87;;
10461;SDS011;5278;42.656;23.374;2023-04-25T08:36:17;10.43;;;5.60;;
10461;SDS011;5278;42.656;23.374;2023-04-25T08:38:44;10.33;;;5.13;;
10461;SDS011;5278;42.656;23.374;2023-04-25T08:41:11;8.20;;;5.13;;
10461;SDS011;5278;42.656;23.374;2023-04-25T08:43:38;7.63;;;5.77;;
10461;SDS011;5278;42.656;23.374;2023-04-25T08:46:09;14.57;;;12.37;;
10461;SDS011;5278;42.656;23.374;2023-04-25T08:48:39;9.47;;;6.10;;
10461;SDS011;5278;42.656;23.374;2023-04-25T08:51:07;6.70;;;5.10;;
10461;SDS011;5278;42.656;23.374;2023-04-25T08:53:34;4.33;;;3.33;;
10461;SDS011;5278;42.656;23.374;2023-04-25T08:56:02;3.60;;;2.57;;
10461;SDS011;5278;42.656;23.374;2023-04-25T08:58:29;2.93;;;2.73;;
10461;SDS011;5278;42.656;23.374;2023-04-25T09:00:58;4.90;;;3.53;;
10461;SDS011;5278;42.656;23.374;2023-04-25T09:03:25;5.63;;;4.33;;
10461;SDS011;5278;42.656;23.374;2023-04-25T09:05:53;6.30;;;5.70;;
10461;SDS011;5278;42.656;23.374;2023-04-25T09:08:21;6.17;;;4.90;;
10461;SDS011;5278;42.656;23.374;2023-04-25T09:10:48;5.77;;;5.00;;
10461;SDS011;5278;42.656;23.374;2023-04-25T09:13:20;5.53;;;4.80;;
10461;SDS011;5278;42.656;23.374;2023-04-25T09:15:51;6.90;;;6.20;;
10461;SDS011;5278;42.656;23.374;2023-04-25T09:18:23;7.13;;;5.23;;
10461;SDS011;5278;42.656;23.374;2023-04-25T09:20:51;6.70;;;5.20;;
10461;SDS011;5278;42.656;23.374;2023-04-25T09:23:20;6.97;;;5.67;;
10461;SDS011;5278;42.656;23.374;2023-04-25T09:25:49;5.20;;;4.70;;
10461;SDS011;5278;42.656;23.374;2023-04-25T09:28:18;5.73;;;5.20;;
10461;SDS011;5278;42.656;23.374;2023-04-25T09:30:53;5.83;;;4.70;;
10461;SDS011;5278;42.656;23.374;2023-04-25T09:33:26;4.67;;;4.17;;
10461;SDS011;5278;42.656;23.374;2023-04-25T09:36:01;6.97;;;5.20;;
10461;SDS011;5278;42.656;23.374;2023-04-25T09:38:29;5.33;;;4.83;;
10461;SDS011;5278;42.656;23.374;2023-04-25T09:40:57;5.23;;;4.37;;
10461;SDS011;5278;42.656;23.374;2023-04-25T09:43:25;6.70;;;3.97;;
10461;SDS011;5278;42.656;23.374;2023-04-25T09:45:53;4.43;;;3.97;;
10461;SDS011;5278;42.656;23.374;2023-04-25T09:48:24;7.67;;;3.70;;
10461;SDS011;5278;42.656;23.374;2023-04-25T09:53:36;4.97;;;3.90;;
10461;SDS011;5278;42.656;23.374;2023-04-25T09:56:04;6.23;;;4.70;;
10461;SDS011;5278;42.656;23.374;2023-04-25T09:58:32;5.23;;;3.90;;
10461;SDS011;5278;42.656;23.374;2023-04-25T10:01:00;4.07;;;3.63;;
10461;SDS011;5278;42.656;23.374;2023-04-25T10:03:29;5.83;;;3.60;;
10461;SDS011;5278;42.656;23.374;2023-04-25T10:05:59;7.30;;;5.13;;
10461;SDS011;5278;42.656;23.374;2023-04-25T10:08:30;6.40;;;5.20;;
10461;SDS011;5278;42.656;23.374;2023-04-25T10:10:59;8.40;;;5.20;;
10461;SDS011;5278;42.656;23.374;2023-04-25T10:13:28;8.30;;;6.43;;
10461;SDS011;5278;42.656;23.374;2023-04-25T10:15:56;23.00;;;12.23;;
10461;SDS011;5278;42.656;23.374;2023-04-25T10:18:24;6.40;;;4.57;;
10461;SDS011;5278;42.656;23.374;2023-04-25T10:20:51;4.57;;;3.80;;
10461;SDS011;5278;42.656;23.374;2023-04-25T10:23:20;5.13;;;3.60;;
10461;SDS011;5278;42.656;23.374;2023-04-25T10:25:48;9.67;;;5.10;;
10461;SDS011;5278;42.656;23.374;2023-04-25T10:28:16;7.10;;;4.63;;
10461;SDS011;5278;42.656;23.374;2023-04-25T10:30:57;10.13;;;4.77;;
10461;SDS011;5278;42.656;23.374;2023-04-25T10:33:34;6.83;;;4.07;;
10461;SDS011;5278;42.656;23.374;2023-04-25T10:36:11;7.33;;;5.93;;
10461;SDS011;5278;42.656;23.374;2023-04-25T10:38:39;4.57;;;3.50;;
10461;SDS011;5278;42.656;23.374;2023-04-25T10:41:08;4.87;;;4.13;;
10461;SDS011;5278;42.656;23.374;2023-04-25T10:43:36;7.37;;;4.50;;
10461;SDS011;5278;42.656;23.374;2023-04-25T10:46:17;3.47;;;2.60;;
10461;SDS011;5278;42.656;23.374;2023-04-25T10:48:46;4.23;;;3.13;;
10461;SDS011;5278;42.656;23.374;2023-04-25T10:51:23;3.90;;;3.50;;
10461;SDS011;5278;42.656;23.374;2023-04-25T10:53:58;3.53;;;2.83;;
10461;SDS011;5278;42.656;23.374;2023-04-25T10:56:28;4.30;;;3.40;;
10461;SDS011;5278;42.656;23.374;2023-04-25T10:59:08;4.20;;;3.00;;
10461;SDS011;5278;42.656;23.374;2023-04-25T11:01:38;3.73;;;2.40;;
10461;SDS011;5278;42.656;23.374;2023-04-25T11:04:06;2.93;;;2.40;;
10461;SDS011;5278;42.656;23.374;2023-04-25T11:06:46;4.17;;;2.77;;
10461;SDS011;5278;42.656;23.374;2023-04-25T11:09:23;6.03;;;2.93;;
10461;SDS011;5278;42.656;23.374;2023-04-25T11:11:54;4.17;;;2.53;;
10461;SDS011;5278;42.656;23.374;2023-04-25T11:14:22;3.53;;;2.40;;
10461;SDS011;5278;42.656;23.374;2023-04-25T11:16:52;5.17;;;3.40;;
10461;SDS011;5278;42.656;23.374;2023-04-25T11:19:19;4.67;;;3.37;;
10461;SDS011;5278;42.656;23.374;2023-04-25T11:21:46;2.23;;;1.83;;
10461;SDS011;5278;42.656;23.374;2023-04-25T11:24:13;3.90;;;2.40;;
10461;SDS011;5278;42.656;23.374;2023-04-25T11:26:41;2.90;;;2.10;;
10461;SDS011;5278;42.656;23.374;2023-04-25T11:29:10;3.47;;;2.27;;
10461;SDS011;5278;42.656;23.374;2023-04-25T11:31:37;6.47;;;2.60;;
10461;SDS011;5278;42.656;23.374;2023-04-25T11:34:03;4.47;;;2.40;;
10461;SDS011;5278;42.656;23.374;2023-04-25T11:36:30;2.50;;;2.30;;
10461;SDS011;5278;42.656;23.374;2023-04-25T11:38:57;3.47;;;2.50;;
10461;SDS011;5278;42.656;23.374;2023-04-25T11:41:25;3.43;;;2.50;;
10461;SDS011;5278;42.656;23.374;2023-04-25T11:43:52;5.90;;;2.43;;
10461;SDS011;5278;42.656;23.374;2023-04-25T11:46:20;4.13;;;2.97;;
10461;SDS011;5278;42.656;23.374;2023-04-25T11:48:48;4.73;;;2.87;;
10461;SDS011;5278;42.656;23.374;2023-04-25T11:51:15;2.50;;;2.10;;
10461;SDS011;5278;42.656;23.374;2023-04-25T11:53:43;9.87;;;2.80;;
10461;SDS011;5278;42.656;23.374;2023-04-25T11:56:11;4.30;;;2.40;;
10461;SDS011;5278;42.656;23.374;2023-04-25T12:01:26;2.07;;;1.67;;
10461;SDS011;5278;42.656;23.374;2023-04-25T12:03:54;3.17;;;1.70;;
10461;SDS011;5278;42.656;23.374;2023-04-25T12:06:21;3.80;;;1.90;;
10461;SDS011;5278;42.656;23.374;2023-04-25T12:09:01;1.60;;;1.50;;
10461;SDS011;5278;42.656;23.374;2023-04-25T12:11:29;1.67;;;1.50;;
10461;SDS011;5278;42.656;23.374;2023-04-25T12:14:01;1.93;;;1.30;;
10461;SDS011;5278;42.656;23.374;2023-04-25T12:16:30;1.30;;;1.20;;
10461;SDS011;5278;42.656;23.374;2023-04-25T12:19:06;2.83;;;1.60;;
10461;SDS011;5278;42.656;23.374;2023-04-25T12:21:33;1.53;;;1.30;;
10461;SDS011;5278;42.656;23.374;2023-04-25T12:24:09;1.97;;;1.33;;
10461;SDS011;5278;42.656;23.374;2023-04-25T12:26:50;1.53;;;1.43;;
10461;SDS011;5278;42.656;23.374;2023-04-25T12:29:18;3.13;;;1.80;;
10461;SDS011;5278;42.656;23.374;2023-04-25T12:31:48;1.40;;;1.10;;
10461;SDS011;5278;42.656;23.374;2023-04-25T12:34:16;1.70;;;1.40;;
10461;SDS011;5278;42.656;23.374;2023-04-25T12:36:43;2.30;;;1.60;;
10461;SDS011;5278;42.656;23.374;2023-04-25T12:39:14;1.40;;;1.30;;
10461;SDS011;5278;42.656;23.374;2023-04-25T12:41:41;1.83;;;1.30;;
10461;SDS011;5278;42.656;23.374;2023-04-25T12:44:08;4.17;;;1.60;;
10461;SDS011;5278;42.656;23.374;2023-04-25T12:46:35;1.10;;;1.10;;
10461;SDS011;5278;42.656;23.374;2023-04-25T12:49:03;1.10;;;1.10;;
10461;SDS011;5278;42.656;23.374;2023-04-25T12:51:31;1.43;;;1.33;;
10461;SDS011;5278;42.656;23.374;2023-04-25T12:53:58;2.83;;;1.30;;
10461;SDS011;5278;42.656;23.374;2023-04-25T12:56:27;2.33;;;1.50;;
10461;SDS011;5278;42.656;23.374;2023-04-25T12:58:55;1.63;;;1.30;;
10461;SDS011;5278;42.656;23.374;2023-04-25T13:01:22;2.17;;;1.30;;
10461;SDS011;5278;42.656;23.374;2023-04-25T13:03:49;3.87;;;1.37;;
10461;SDS011;5278;42.656;23.374;2023-04-25T13:06:18;5.33;;;1.57;;
10461;SDS011;5278;42.656;23.374;2023-04-25T13:08:46;3.47;;;1.73;;
10461;SDS011;5278;42.656;23.374;2023-04-25T13:11:13;1.63;;;1.40;;
10461;SDS011;5278;42.656;23.374;2023-04-25T13:13:41;1.40;;;1.27;;
10461;SDS011;5278;42.656;23.374;2023-04-25T13:16:08;1.20;;;1.03;;
10461;SDS011;5278;42.656;23.374;2023-04-25T13:18:35;1.93;;;1.33;;
10461;SDS011;5278;42.656;23.374;2023-04-25T13:21:02;2.23;;;1.70;;
10461;SDS011;5278;42.656;23.374;2023-04-25T13:23:31;2.80;;;1.40;;
10461;SDS011;5278;42.656;23.374;2023-04-25T13:25:58;5.53;;;2.23;;
10461;SDS011;5278;42.656;23.374;2023-04-25T13:28:26;1.83;;;1.50;;
10461;SDS011;5278;42.656;23.374;2023-04-25T13:30:53;4.33;;;1.70;;
10461;SDS011;5278;42.656;23.374;2023-04-25T13:33:20;2.40;;;1.67;;
10461;SDS011;5278;42.656;23.374;2023-04-25T13:35:48;2.30;;;1.50;;
10461;SDS011;5278;42.656;23.374;2023-04-25T13:38:19;2.20;;;1.57;;
10461;SDS011;5278;42.656;23.374;2023-04-25T13:40:49;3.97;;;1.93;;
10461;SDS011;5278;42.656;23.374;2023-04-25T13:43:17;2.73;;;1.80;;
10461;SDS011;5278;42.656;23.374;2023-04-25T13:45:45;2.60;;;1.90;;
10461;SDS011;5278;42.656;23.374;2023-04-25T13:48:12;3.17;;;1.80;;
10461;SDS011;5278;42.656;23.374;2023-04-25T13:50:39;3.83;;;1.60;;
10461;SDS011;5278;42.656;23.374;2023-04-25T13:53:05;2.37;;;2.00;;
10461;SDS011;5278;42.656;23.374;2023-04-25T13:55:33;2.13;;;1.70;;
10461;SDS011;5278;42.656;23.374;2023-04-25T13:58:03;3.17;;;1.63;;
10461;SDS011;5278;42.656;23.374;2023-04-25T14:00:33;2.20;;;1.60;;
10461;SDS011;5278;42.656;23.374;2023-04-25T14:03:01;4.03;;;1.70;;
10461;SDS011;5278;42.656;23.374;2023-04-25T14:05:30;2.97;;;1.90;;
10461;SDS011;5278;42.656;23.374;2023-04-25T14:07:57;2.10;;;1.90;;
10461;SDS011;5278;42.656;23.374;2023-04-25T14:10:24;2.70;;;1.63;;
10461;SDS011;5278;42.656;23.374;2023-04-25T14:12:51;2.10;;;1.90;;
10461;SDS011;5278;42.656;23.374;2023-04-25T14:15:19;2.83;;;1.67;;
10461;SDS011;5278;42.656;23.374;2023-04-25T14:17:46;2.63;;;1.60;;
10461;SDS011;5278;42.656;23.374;2023-04-25T14:20:14;2.00;;;1.53;;
10461;SDS011;5278;42.656;23.374;2023-04-25T14:22:45;2.20;;;1.77;;
10461;SDS011;5278;42.656;23.374;2023-04-25T14:25:12;1.40;;;1.30;;
10461;SDS011;5278;42.656;23.374;2023-04-25T14:27:39;2.60;;;1.60;;
10461;SDS011;5278;42.656;23.374;2023-04-25T14:30:06;5.07;;;1.70;;
10461;SDS011;5278;42.656;23.374;2023-04-25T14:32:36;2.30;;;1.30;;
10461;SDS011;5278;42.656;23.374;2023-04-25T14:35:03;2.93;;;2.63;;
10461;SDS011;5278;42.656;23.374;2023-04-25T14:37:30;1.50;;;1.40;;
10461;SDS011;5278;42.656;23.374;2023-04-25T14:39:57;3.83;;;2.00;;
10461;SDS011;5278;42.656;23.374;2023-04-25T14:42:24;2.87;;;1.57;;
10461;SDS011;5278;42.656;23.374;2023-04-25T14:44:51;2.33;;;1.67;;
10461;SDS011;5278;42.656;23.374;2023-04-25T14:47:18;1.70;;;1.60;;
10461;SDS011;5278;42.656;23.374;2023-04-25T14:49:46;2.10;;;1.90;;
10461;SDS011;5278;42.656;23.374;2023-04-25T14:52:19;4.73;;;2.33;;
10461;SDS011;5278;42.656;23.374;2023-04-25T14:54:46;2.37;;;1.50;;
10461;SDS011;5278;42.656;23.374;2023-04-25T14:57:13;1.97;;;1.77;;